Time;durP1;ratioP1;P1;durP2;ratioP2;P2;SDS_P1;SDS_P2;PMS_P1;PMS_P2;Temp;Humidity;BMP_temperature;BMP_pressure;BME280_temperature;BME280_humidity;BME280_pressure;Samples;Min_cycle;Max_cycle;Signal;HPM_P1;HPM_P2
2023/06/03 00:01:50;;;;;;;5.13;2.85;;;15.70;98.10;;;;;;5086420;28;20841;-43
2023/06/03 00:04:17;;;;;;;4.53;2.53;;;15.70;98.10;;;;;;5085628;28;20301;-43
2023/06/03 00:06:42;;;;;;;3.10;2.45;;;15.60;98.20;;;;;;5086731;28;20024;-42
2023/06/03 00:09:09;;;;;;;2.50;2.30;;;15.70;98.20;;;;;;5082083;28;20116;-42
2023/06/03 00:11:37;;;;;;;4.00;2.63;;;15.60;98.20;;;;;;5084769;28;20040;-43
2023/06/03 00:14:03;;;;;;;5.70;2.70;;;15.60;98.30;;;;;;5086536;28;20356;-43
2023/06/03 00:16:35;;;;;;;3.65;2.22;;;15.60;98.30;;;;;;5085251;28;20094;-42
2023/06/03 00:19:01;;;;;;;5.20;2.67;;;15.60;98.40;;;;;;5086031;28;20028;-43
2023/06/03 00:21:27;;;;;;;3.40;2.67;;;15.50;98.40;;;;;;5085237;28;20278;-43
2023/06/03 00:23:53;;;;;;;4.20;2.97;;;15.50;98.40;;;;;;5085292;28;20017;-42
2023/06/03 00:26:20;;;;;;;4.38;2.83;;;15.50;98.50;;;;;;5085457;28;20119;-42
2023/06/03 00:28:46;;;;;;;6.85;3.40;;;15.40;98.50;;;;;;5085393;28;20092;-43
2023/06/03 00:31:11;;;;;;;4.68;2.60;;;15.40;98.60;;;;;;5084920;28;20140;-43
2023/06/03 00:33:37;;;;;;;3.75;2.75;;;15.30;98.60;;;;;;5084623;28;20097;-43
2023/06/03 00:36:02;;;;;;;3.17;2.70;;;15.30;98.70;;;;;;5084224;28;20085;-43
2023/06/03 00:38:28;;;;;;;7.40;3.40;;;15.30;98.70;;;;;;5084276;28;20026;-42
2023/06/03 00:40:53;;;;;;;5.47;3.38;;;15.20;98.70;;;;;;5085371;28;20065;-42
2023/06/03 00:43:19;;;;;;;3.72;2.60;;;15.20;98.70;;;;;;5085119;28;20020;-42
2023/06/03 00:45:44;;;;;;;3.97;3.00;;;15.20;98.70;;;;;;5083793;28;20074;-43
2023/06/03 00:48:11;;;;;;;5.63;2.80;;;15.20;98.70;;;;;;5085958;28;20516;-43
2023/06/03 00:50:37;;;;;;;3.53;2.50;;;15.20;98.70;;;;;;5085029;28;20246;-43
2023/06/03 00:53:03;;;;;;;5.43;2.90;;;15.20;98.80;;;;;;5084781;28;20060;-43
2023/06/03 00:55:29;;;;;;;4.32;2.80;;;15.10;98.70;;;;;;5084651;28;20032;-43
2023/06/03 00:57:55;;;;;;;4.82;2.95;;;15.10;98.80;;;;;;5085326;28;20072;-42
2023/06/03 01:00:21;;;;;;;3.92;3.22;;;15.10;98.80;;;;;;5083407;28;20139;-43
2023/06/03 01:02:46;;;;;;;3.80;2.90;;;15.10;98.90;;;;;;5076979;28;20036;-43
2023/06/03 01:05:13;;;;;;;5.32;3.28;;;15.00;98.80;;;;;;5072336;28;20116;-42
2023/06/03 01:07:46;;;;;;;4.40;2.95;;;15.00;98.80;;;;;;5083820;28;20684;-43
2023/06/03 01:10:23;;;;;;;5.20;2.65;;;15.00;98.90;;;;;;5083706;28;20042;-43
2023/06/03 01:13:04;;;;;;;5.47;2.90;;;14.90;98.90;;;;;;5084470;28;20062;-43
2023/06/03 01:15:32;;;;;;;4.00;2.30;;;14.90;98.90;;;;;;5084315;28;20046;-41
2023/06/03 01:18:05;;;;;;;4.00;2.53;;;14.90;98.80;;;;;;5085037;28;20030;-43
2023/06/03 01:20:35;;;;;;;4.32;2.55;;;14.90;98.80;;;;;;5083577;28;20043;-43
2023/06/03 01:23:23;;;;;;;2.92;2.20;;;14.90;98.80;;;;;;5085260;28;20024;-41
2023/06/03 01:25:56;;;;;;;3.33;2.10;;;14.90;98.80;;;;;;5084800;28;20107;-42
2023/06/03 01:28:23;;;;;;;3.97;2.33;;;14.80;99.00;;;;;;5083925;28;20027;-42
2023/06/03 01:30:50;;;;;;;2.60;2.28;;;14.80;98.70;;;;;;5084078;28;20051;-43
2023/06/03 01:33:20;;;;;;;3.63;2.50;;;14.80;98.70;;;;;;5084788;28;20170;-43
2023/06/03 01:35:48;;;;;;;4.70;2.63;;;14.80;98.70;;;;;;5083433;28;20491;-43
2023/06/03 01:38:16;;;;;;;4.40;2.20;;;14.80;98.70;;;;;;5084569;28;20016;-42
2023/06/03 01:40:42;;;;;;;3.03;2.30;;;14.70;98.60;;;;;;5084013;28;20039;-42
2023/06/03 01:43:08;;;;;;;2.45;2.15;;;14.80;98.60;;;;;;5083602;28;20380;-43
2023/06/03 01:45:33;;;;;;;3.75;1.80;;;14.80;98.60;;;;;;5083776;28;20501;-43
2023/06/03 01:47:59;;;;;;;3.00;2.08;;;14.80;98.60;;;;;;5084106;28;20027;-42
2023/06/03 01:50:25;;;;;;;4.82;2.20;;;14.70;98.50;;;;;;5083536;28;20115;-43
2023/06/03 01:52:51;;;;;;;4.13;2.30;;;14.70;98.50;;;;;;5073405;28;20029;-41
2023/06/03 01:55:17;;;;;;;3.97;2.30;;;14.70;98.40;;;;;;5083329;28;20050;-43
2023/06/03 01:57:47;;;;;;;3.42;2.13;;;14.60;98.40;;;;;;5082709;28;20039;-44
2023/06/03 02:00:13;;;;;;;3.28;2.10;;;14.60;98.40;;;;;;5084218;28;20070;-43
2023/06/03 02:02:39;;;;;;;5.43;1.80;;;14.60;98.40;;;;;;5082046;28;20058;-43
2023/06/03 02:05:08;;;;;;;3.95;2.10;;;14.60;98.30;;;;;;5083768;28;20016;-42
2023/06/03 02:07:34;;;;;;;2.97;2.20;;;14.60;98.30;;;;;;5083465;28;20129;-42
2023/06/03 02:10:00;;;;;;;3.05;2.15;;;14.60;98.30;;;;;;5082954;28;20851;-42
2023/06/03 02:12:26;;;;;;;3.70;2.05;;;14.60;98.30;;;;;;5082820;28;20024;-43
2023/06/03 02:14:53;;;;;;;3.83;1.70;;;14.60;98.20;;;;;;5084089;28;20024;-42
2023/06/03 02:17:26;;;;;;;3.30;1.77;;;14.50;98.20;;;;;;5082362;28;20475;-43
2023/06/03 02:19:55;;;;;;;2.53;1.70;;;14.50;98.10;;;;;;5082533;28;20032;-42
2023/06/03 02:22:22;;;;;;;2.50;1.77;;;14.50;98.10;;;;;;5067402;28;20362;-42
2023/06/03 02:24:50;;;;;;;2.35;1.70;;;14.50;98.00;;;;;;5082527;28;20027;-42
2023/06/03 02:27:19;;;;;;;2.20;1.70;;;14.50;98.00;;;;;;5083224;28;20032;-43
2023/06/03 02:29:50;;;;;;;2.15;1.65;;;14.50;98.00;;;;;;5083383;28;20042;-44
2023/06/03 02:32:16;;;;;;;3.03;1.70;;;14.50;97.90;;;;;;5083219;28;20468;-42
2023/06/03 02:34:46;;;;;;;5.13;1.85;;;14.40;97.90;;;;;;5083459;28;20523;-43
2023/06/03 02:37:12;;;;;;;4.53;1.80;;;14.40;97.80;;;;;;5082322;28;20032;-43
2023/06/03 02:39:38;;;;;;;2.60;1.70;;;14.30;97.80;;;;;;5082228;28;20458;-43
2023/06/03 02:42:10;;;;;;;2.20;1.75;;;14.30;97.80;;;;;;5083681;28;20039;-42
2023/06/03 02:44:36;;;;;;;2.60;1.77;;;14.30;97.80;;;;;;5082128;28;20028;-42
2023/06/03 02:47:02;;;;;;;2.10;1.80;;;14.20;97.70;;;;;;5083926;28;20020;-42
2023/06/03 02:49:28;;;;;;;1.70;1.42;;;14.30;97.70;;;;;;5079851;28;20020;-43
2023/06/03 02:51:54;;;;;;;3.17;1.80;;;14.20;97.70;;;;;;5081776;28;20032;-42
2023/06/03 02:54:20;;;;;;;3.00;1.67;;;14.20;97.60;;;;;;5083341;28;20103;-42
2023/06/03 02:56:46;;;;;;;2.42;1.70;;;14.20;97.60;;;;;;5083275;28;20546;-43
2023/06/03 02:59:11;;;;;;;3.58;1.67;;;14.10;97.50;;;;;;5082077;28;20101;-43
2023/06/03 03:01:38;;;;;;;3.20;1.80;;;14.10;97.60;;;;;;5082901;28;20376;-43
2023/06/03 03:04:04;;;;;;;4.30;2.10;;;14.10;97.60;;;;;;5083350;28;20018;-41
2023/06/03 03:06:29;;;;;;;3.05;1.90;;;14.00;97.50;;;;;;5080295;28;20128;-42
2023/06/03 03:08:55;;;;;;;2.75;2.03;;;14.00;97.50;;;;;;5085472;28;20020;-43
2023/06/03 03:11:21;;;;;;;3.42;2.10;;;14.00;97.50;;;;;;5086906;28;20055;-42
2023/06/03 03:13:47;;;;;;;2.90;1.73;;;13.90;97.50;;;;;;5085842;28;20039;-42
2023/06/03 03:16:13;;;;;;;2.55;1.52;;;13.90;97.50;;;;;;5086209;28;20016;-41
2023/06/03 03:18:40;;;;;;;2.63;1.73;;;13.80;97.50;;;;;;5085621;28;20054;-42
2023/06/03 03:21:06;;;;;;;2.63;1.70;;;13.80;97.50;;;;;;5085673;28;20036;-42
2023/06/03 03:23:32;;;;;;;3.88;1.88;;;13.80;97.50;;;;;;5086385;28;20538;-43
2023/06/03 03:25:58;;;;;;;1.80;1.48;;;13.70;97.50;;;;;;5086905;28;20043;-42
2023/06/03 03:28:33;;;;;;;2.03;1.70;;;13.70;97.50;;;;;;5086230;28;20124;-42
2023/06/03 03:30:59;;;;;;;2.10;1.73;;;13.70;97.50;;;;;;5086888;28;20032;-44
2023/06/03 03:33:28;;;;;;;4.22;2.22;;;13.70;97.50;;;;;;5086338;28;20026;-42
2023/06/03 03:35:53;;;;;;;2.80;1.67;;;13.60;97.50;;;;;;5086236;28;20075;-43
2023/06/03 03:38:19;;;;;;;2.95;1.75;;;13.60;97.50;;;;;;5086579;28;20028;-44
2023/06/03 03:40:45;;;;;;;3.25;1.80;;;13.60;97.50;;;;;;5085283;28;20496;-42
2023/06/03 03:43:16;;;;;;;2.42;1.63;;;13.50;97.40;;;;;;5086431;28;20032;-43
2023/06/03 03:45:42;;;;;;;3.50;1.80;;;13.50;97.40;;;;;;5084845;28;20035;-42
2023/06/03 03:48:13;;;;;;;3.03;1.83;;;13.50;97.40;;;;;;5086183;28;20016;-45
2023/06/03 03:50:47;;;;;;;1.73;1.50;;;13.50;97.40;;;;;;5085472;28;20032;-43
2023/06/03 03:53:19;;;;;;;2.00;1.70;;;13.50;97.40;;;;;;5086547;28;20028;-42
2023/06/03 03:55:47;;;;;;;3.30;2.00;;;13.50;97.30;;;;;;5085684;28;20039;-42
2023/06/03 03:58:26;;;;;;;5.80;2.00;;;13.40;97.30;;;;;;5086335;28;20113;-43
2023/06/03 04:00:59;;;;;;;2.95;1.70;;;13.40;97.20;;;;;;5086025;28;20044;-42
2023/06/03 04:03:25;;;;;;;2.15;1.80;;;13.40;97.30;;;;;;5085525;28;20039;-41
2023/06/03 04:05:51;;;;;;;3.15;2.00;;;13.40;97.20;;;;;;5086080;28;20030;-42
2023/06/03 04:08:36;;;;;;;3.20;1.88;;;13.40;97.20;;;;;;5086524;28;20028;-42
2023/06/03 04:11:03;;;;;;;4.57;1.90;;;13.30;97.20;;;;;;5086313;28;20032;-43
2023/06/03 04:13:30;;;;;;;3.92;1.70;;;13.40;97.20;;;;;;5077089;28;20027;-42
2023/06/03 04:16:00;;;;;;;2.13;1.42;;;13.40;97.20;;;;;;5067369;28;20029;-42
2023/06/03 04:18:26;;;;;;;1.95;1.30;;;13.30;97.10;;;;;;5085586;28;20136;-43
2023/06/03 04:20:56;;;;;;;1.88;1.58;;;13.30;97.10;;;;;;5085695;28;20039;-42
2023/06/03 04:23:22;;;;;;;3.42;1.50;;;13.30;97.10;;;;;;5085033;28;20383;-43
2023/06/03 04:25:48;;;;;;;1.08;0.98;;;13.30;97.00;;;;;;5086046;28;20497;-42
2023/06/03 04:28:14;;;;;;;5.38;1.70;;;13.30;97.00;;;;;;5084696;28;20089;-43
2023/06/03 04:30:39;;;;;;;1.42;1.30;;;13.30;97.00;;;;;;5083928;28;20499;-43
2023/06/03 04:33:06;;;;;;;2.55;1.52;;;13.30;96.90;;;;;;5084816;28;20028;-43
2023/06/03 04:35:31;;;;;;;2.55;1.40;;;13.30;97.10;;;;;;5083885;28;20020;-43
2023/06/03 04:37:59;;;;;;;3.65;1.30;;;13.30;96.80;;;;;;5084097;28;20035;-42
2023/06/03 04:40:26;;;;;;;2.10;1.77;;;13.40;96.80;;;;;;5085165;28;20035;-42
2023/06/03 04:42:52;;;;;;;3.15;1.65;;;13.30;96.70;;;;;;5078310;28;20048;-43
2023/06/03 04:45:21;;;;;;;3.13;1.67;;;13.40;96.60;;;;;;5084810;28;20020;-43
2023/06/03 04:47:47;;;;;;;2.03;1.17;;;13.40;96.60;;;;;;5084715;28;20023;-43
2023/06/03 04:50:17;;;;;;;1.77;1.27;;;13.40;96.50;;;;;;5085418;28;20040;-44
2023/06/03 04:52:42;;;;;;;1.40;1.30;;;13.40;96.40;;;;;;5084238;28;20020;-43
2023/06/03 04:55:08;;;;;;;2.15;1.33;;;13.40;96.40;;;;;;5085229;28;20038;-42
2023/06/03 04:57:37;;;;;;;2.63;1.38;;;13.50;96.30;;;;;;5084159;28;20044;-42
2023/06/03 05:00:05;;;;;;;2.10;1.27;;;13.50;96.20;;;;;;5083929;28;20045;-43
2023/06/03 05:02:31;;;;;;;1.42;1.00;;;13.50;96.20;;;;;;5084330;28;20817;-44
2023/06/03 05:05:00;;;;;;;2.40;1.30;;;13.50;96.10;;;;;;5084287;28;20024;-42
2023/06/03 05:07:26;;;;;;;2.38;1.38;;;13.50;96.00;;;;;;5083470;28;20028;-43
2023/06/03 05:09:52;;;;;;;2.33;1.13;;;13.60;96.00;;;;;;5084639;28;20472;-42
2023/06/03 05:12:18;;;;;;;1.77;1.30;;;13.60;95.90;;;;;;5083895;28;20028;-42
2023/06/03 05:14:45;;;;;;;2.22;1.42;;;13.60;95.80;;;;;;5084362;28;20073;-42
2023/06/03 05:17:11;;;;;;;1.55;1.20;;;13.60;95.70;;;;;;5085451;28;20024;-44
2023/06/03 05:19:36;;;;;;;1.45;1.10;;;13.70;95.70;;;;;;5083522;28;20047;-43
2023/06/03 05:22:03;;;;;;;1.08;0.95;;;13.70;95.60;;;;;;5085149;28;20031;-43
2023/06/03 05:24:29;;;;;;;1.67;1.27;;;13.70;95.50;;;;;;5083980;28;20046;-43
2023/06/03 05:26:54;;;;;;;2.65;1.15;;;13.80;95.50;;;;;;5083908;28;20024;-42
2023/06/03 05:29:20;;;;;;;1.50;1.00;;;13.80;95.50;;;;;;5084390;28;20016;-43
2023/06/03 05:31:45;;;;;;;3.92;1.25;;;13.80;95.40;;;;;;5083145;28;20495;-43
2023/06/03 05:34:12;;;;;;;1.33;0.90;;;13.90;95.30;;;;;;5083538;28;20428;-42
2023/06/03 05:36:38;;;;;;;1.10;1.00;;;13.90;95.10;;;;;;5084304;28;20141;-42
2023/06/03 05:39:03;;;;;;;1.40;1.10;;;14.00;95.00;;;;;;5078884;28;20118;-43
2023/06/03 05:41:29;;;;;;;1.75;0.93;;;14.00;94.80;;;;;;5082196;28;20081;-43
2023/06/03 05:43:54;;;;;;;1.85;1.15;;;14.10;94.70;;;;;;5084220;28;20032;-43
2023/06/03 05:46:20;;;;;;;1.38;0.90;;;14.10;94.60;;;;;;5083944;28;20024;-42
2023/06/03 05:48:45;;;;;;;1.90;1.30;;;14.10;94.50;;;;;;5082919;28;20533;-42
2023/06/03 05:51:11;;;;;;;1.58;1.00;;;14.20;94.40;;;;;;5083726;28;20032;-43
2023/06/03 05:53:45;;;;;;;1.70;1.20;;;14.20;94.20;;;;;;5059931;28;20454;-34
2023/06/03 05:56:11;;;;;;;1.98;1.15;;;14.30;93.70;;;;;;5060054;28;20039;-33
2023/06/03 05:58:38;;;;;;;1.65;1.20;;;14.40;93.70;;;;;;5046973;28;20025;-32
2023/06/03 06:01:04;;;;;;;2.05;1.10;;;14.50;93.60;;;;;;5057167;28;20045;-33
2023/06/03 06:03:29;;;;;;;1.55;1.08;;;14.50;93.50;;;;;;5059413;28;20024;-32
2023/06/03 06:05:55;;;;;;;1.80;1.17;;;14.50;93.30;;;;;;5058603;28;20013;-31
2023/06/03 06:08:21;;;;;;;4.13;1.30;;;14.60;93.10;;;;;;5057626;28;20118;-42
2023/06/03 06:10:47;;;;;;;1.08;0.93;;;14.60;93.00;;;;;;5060191;28;20449;-43
2023/06/03 06:13:12;;;;;;;1.60;0.98;;;14.60;93.00;;;;;;5060429;28;20041;-43
2023/06/03 06:15:58;;;;;;;1.83;0.90;;;14.60;92.90;;;;;;5055475;28;20741;-42
2023/06/03 06:18:24;;;;;;;2.28;1.00;;;14.70;92.90;;;;;;5059923;28;20028;-44
2023/06/03 06:20:49;;;;;;;1.45;1.00;;;14.70;92.90;;;;;;5060192;28;20021;-42
2023/06/03 06:23:25;;;;;;;2.58;0.80;;;14.70;92.80;;;;;;5059368;28;20516;-42
2023/06/03 06:25:53;;;;;;;1.55;1.00;;;14.80;93.00;;;;;;5056664;28;20472;-43
2023/06/03 06:28:27;;;;;;;1.73;1.10;;;14.80;92.50;;;;;;5049366;28;20037;-43
2023/06/03 06:30:54;;;;;;;2.25;1.10;;;14.80;92.40;;;;;;5045374;28;20029;-42
2023/06/03 06:33:20;;;;;;;2.53;0.93;;;14.90;92.00;;;;;;5060114;28;20125;-42
2023/06/03 06:35:46;;;;;;;1.60;1.00;;;14.90;91.90;;;;;;5059510;28;20103;-43
2023/06/03 06:38:13;;;;;;;2.05;1.17;;;14.90;91.90;;;;;;5059400;28;20099;-43
2023/06/03 06:40:46;;;;;;;0.82;0.75;;;15.00;91.90;;;;;;5059020;28;20024;-43
2023/06/03 06:43:16;;;;;;;1.58;1.25;;;15.00;91.90;;;;;;5057103;28;20105;-43
2023/06/03 06:45:41;;;;;;;1.20;0.98;;;15.10;91.80;;;;;;5057741;28;20025;-42
2023/06/03 06:48:09;;;;;;;1.33;1.00;;;15.10;91.60;;;;;;5058630;28;20047;-43
2023/06/03 06:50:44;;;;;;;1.52;0.90;;;15.20;91.50;;;;;;5059254;28;20064;-43
2023/06/03 06:53:10;;;;;;;1.25;0.90;;;15.20;91.50;;;;;;5059024;28;20084;-43
2023/06/03 06:55:45;;;;;;;0.80;0.80;;;15.30;91.40;;;;;;5058966;28;20060;-42
2023/06/03 06:58:11;;;;;;;2.72;1.33;;;15.30;91.30;;;;;;5058675;28;20036;-42
2023/06/03 07:00:38;;;;;;;1.45;0.85;;;15.40;91.20;;;;;;5056895;28;20025;-44
2023/06/03 07:03:06;;;;;;;1.80;0.98;;;15.40;91.10;;;;;;5053234;28;20104;-43
2023/06/03 07:05:32;;;;;;;4.28;0.88;;;15.50;91.10;;;;;;5045546;28;20035;-43
2023/06/03 07:07:57;;;;;;;1.95;0.80;;;15.50;91.00;;;;;;5046142;28;20025;-43
2023/06/03 07:10:23;;;;;;;1.35;0.80;;;15.60;91.10;;;;;;5045959;28;20040;-43
2023/06/03 07:12:51;;;;;;;2.28;0.77;;;15.70;91.20;;;;;;5043789;28;20037;-43
2023/06/03 07:15:18;;;;;;;1.25;0.90;;;15.70;91.10;;;;;;5044433;28;20702;-41
2023/06/03 07:17:51;;;;;;;2.50;0.90;;;15.80;91.00;;;;;;5045263;28;20029;-43
2023/06/03 07:20:39;;;;;;;1.23;1.08;;;15.80;91.00;;;;;;5044177;28;20044;-43
2023/06/03 07:23:14;;;;;;;1.48;0.98;;;15.90;90.80;;;;;;5045645;28;20570;-42
2023/06/03 07:25:44;;;;;;;2.50;0.95;;;15.90;90.40;;;;;;5044036;28;20029;-43
2023/06/03 07:28:32;;;;;;;1.38;1.00;;;16.00;90.30;;;;;;5045797;28;20103;-43
2023/06/03 07:31:00;;;;;;;1.77;0.80;;;16.00;90.20;;;;;;5045501;28;20045;-44
2023/06/03 07:33:30;;;;;;;0.98;0.82;;;16.00;90.20;;;;;;5044543;28;20127;-43
2023/06/03 07:35:58;;;;;;;4.53;1.30;;;16.10;90.20;;;;;;5045280;28;20112;-44
2023/06/03 07:38:53;;;;;;;1.50;1.00;;;16.20;90.30;;;;;;5044588;28;20025;-42
2023/06/03 07:41:35;;;;;;;2.15;0.85;;;16.30;90.40;;;;;;5041249;28;20774;-42
2023/06/03 07:44:03;;;;;;;2.63;0.80;;;16.30;90.30;;;;;;5045849;28;20036;-43
2023/06/03 07:46:40;;;;;;;1.50;1.02;;;16.40;89.80;;;;;;5044980;28;20126;-43
2023/06/03 07:49:16;;;;;;;1.58;0.90;;;16.40;89.50;;;;;;5043045;28;20096;-43
2023/06/03 07:51:48;;;;;;;1.65;0.90;;;16.40;89.20;;;;;;5043989;28;20045;-43
2023/06/03 07:54:15;;;;;;;2.25;1.02;;;16.50;89.10;;;;;;5044937;28;20021;-44
2023/06/03 07:56:41;;;;;;;1.67;1.20;;;16.60;88.70;;;;;;5044574;28;20397;-43
2023/06/03 07:59:09;;;;;;;1.15;1.00;;;16.60;88.60;;;;;;5045145;28;20056;-43
2023/06/03 08:01:42;;;;;;;1.50;1.00;;;16.70;88.20;;;;;;5044366;28;20033;-43
2023/06/03 08:04:28;;;;;;;2.53;1.10;;;16.70;88.10;;;;;;5044862;28;20021;-42
2023/06/03 08:06:56;;;;;;;1.13;0.80;;;16.80;87.90;;;;;;5045103;28;20389;-43
2023/06/03 08:09:28;;;;;;;2.00;1.10;;;16.90;87.70;;;;;;5043956;28;20021;-42
2023/06/03 08:11:59;;;;;;;1.25;0.98;;;16.90;87.50;;;;;;5042774;28;20128;-43
2023/06/03 08:14:28;;;;;;;1.90;1.00;;;17.00;86.50;;;;;;5041233;28;20025;-42
2023/06/03 08:17:08;;;;;;;2.15;0.90;;;17.00;86.20;;;;;;5043448;28;20033;-42
2023/06/03 08:19:34;;;;;;;3.03;1.00;;;17.00;85.60;;;;;;5043417;28;20114;-43
2023/06/03 08:22:00;;;;;;;1.52;1.00;;;17.10;85.00;;;;;;5043322;28;20048;-42
2023/06/03 08:24:26;;;;;;;2.20;1.10;;;17.20;84.60;;;;;;5044329;28;20537;-42
2023/06/03 08:26:51;;;;;;;2.65;1.13;;;17.20;84.40;;;;;;5045576;28;20025;-43
2023/06/03 08:29:17;;;;;;;3.40;0.82;;;17.20;84.40;;;;;;5044241;28;20098;-43
2023/06/03 08:31:42;;;;;;;3.20;1.00;;;17.30;83.60;;;;;;5044384;28;20036;-43
2023/06/03 08:34:08;;;;;;;2.55;1.00;;;17.30;82.80;;;;;;5044883;28;20203;-43
2023/06/03 08:36:35;;;;;;;1.15;0.75;;;17.40;81.10;;;;;;5042782;28;20112;-44
2023/06/03 08:39:01;;;;;;;1.73;0.82;;;17.40;80.70;;;;;;5044670;28;20465;-45
2023/06/03 08:41:36;;;;;;;1.30;0.70;;;17.50;80.60;;;;;;5043945;28;20040;-44
2023/06/03 08:44:08;;;;;;;2.83;0.70;;;17.50;80.60;;;;;;5024228;28;20737;-44
2023/06/03 08:46:54;;;;;;;2.92;0.88;;;17.60;80.20;;;;;;5040398;28;20354;-43
2023/06/03 08:49:35;;;;;;;1.35;0.80;;;17.60;79.90;;;;;;5024412;28;20041;-43
2023/06/03 08:52:03;;;;;;;2.80;0.70;;;17.60;79.60;;;;;;5041843;28;20067;-43
2023/06/03 08:54:34;;;;;;;1.40;0.80;;;17.70;79.50;;;;;;5044087;28;20558;-44
2023/06/03 08:57:08;;;;;;;1.80;0.60;;;17.70;79.60;;;;;;5043260;28;20035;-43
2023/06/03 08:59:37;;;;;;;2.92;1.00;;;17.80;79.60;;;;;;5034935;28;20044;-42
2023/06/03 09:02:05;;;;;;;1.80;0.90;;;17.80;79.00;;;;;;5039953;28;20025;-43
2023/06/03 09:04:31;;;;;;;1.63;0.90;;;17.90;78.60;;;;;;5042580;28;20541;-43
2023/06/03 09:06:57;;;;;;;1.30;0.77;;;17.90;78.60;;;;;;5036102;28;20108;-44
2023/06/03 09:09:27;;;;;;;0.90;0.60;;;17.90;78.40;;;;;;5042998;28;20040;-43
2023/06/03 09:11:54;;;;;;;1.70;0.70;;;17.90;78.50;;;;;;5042859;28;20044;-42
2023/06/03 09:14:20;;;;;;;0.95;0.82;;;18.00;78.50;;;;;;5043375;28;20025;-42
2023/06/03 09:16:46;;;;;;;1.30;0.63;;;18.00;76.90;;;;;;5043335;28;20035;-42
2023/06/03 09:19:12;;;;;;;1.83;0.85;;;18.10;77.10;;;;;;5042953;28;20021;-43
2023/06/03 09:21:42;;;;;;;0.98;0.60;;;18.10;76.50;;;;;;5042727;28;20115;-43
2023/06/03 09:24:10;;;;;;;0.70;0.70;;;18.20;76.20;;;;;;5043845;28;20019;-46
2023/06/03 09:26:36;;;;;;;1.30;0.65;;;18.20;76.10;;;;;;5038132;28;20025;-43
2023/06/03 09:29:02;;;;;;;1.35;0.65;;;18.30;74.70;;;;;;5041052;28;20396;-43
2023/06/03 09:31:28;;;;;;;2.03;1.10;;;18.30;73.90;;;;;;5042661;28;20036;-42
2023/06/03 09:33:57;;;;;;;1.75;0.70;;;18.30;72.80;;;;;;5043036;28;20539;-44
2023/06/03 09:36:22;;;;;;;0.60;0.50;;;18.40;72.60;;;;;;5042237;28;20108;-43
2023/06/03 09:39:10;;;;;;;1.13;0.68;;;18.40;72.50;;;;;;5042894;28;20577;-43
2023/06/03 09:41:36;;;;;;;0.60;0.60;;;18.30;72.10;;;;;;5041989;28;20033;-43
2023/06/03 09:44:08;;;;;;;1.85;0.60;;;18.40;71.90;;;;;;5043219;28;20041;-43
2023/06/03 09:46:34;;;;;;;1.38;0.60;;;18.50;71.00;;;;;;5042461;28;20028;-43
2023/06/03 09:49:14;;;;;;;1.55;0.80;;;18.50;71.20;;;;;;5043564;28;20033;-43
2023/06/03 09:51:45;;;;;;;1.30;0.80;;;18.50;70.70;;;;;;5043101;28;20095;-44
2023/06/03 09:54:14;;;;;;;1.77;0.60;;;18.60;70.00;;;;;;5042613;28;20041;-44
2023/06/03 09:56:40;;;;;;;0.93;0.52;;;18.60;69.50;;;;;;5043172;28;20773;-43
2023/06/03 09:59:20;;;;;;;1.17;0.70;;;18.60;69.60;;;;;;5042770;28;20116;-43
2023/06/03 10:01:47;;;;;;;1.33;0.60;;;18.60;68.40;;;;;;5042703;28;20029;-42
2023/06/03 10:04:17;;;;;;;0.73;0.60;;;18.70;68.60;;;;;;5043671;28;20025;-43
2023/06/03 10:06:43;;;;;;;1.52;0.68;;;18.70;68.60;;;;;;5034131;28;20043;-44
2023/06/03 10:09:22;;;;;;;0.63;0.52;;;18.70;68.70;;;;;;5042339;28;20017;-43
2023/06/03 10:11:52;;;;;;;3.25;0.60;;;18.80;68.60;;;;;;5043101;28;20025;-44
2023/06/03 10:14:22;;;;;;;5.53;0.57;;;18.80;68.30;;;;;;5042521;28;20037;-43
2023/06/03 10:17:10;;;;;;;2.40;0.68;;;18.80;67.10;;;;;;5043047;28;20029;-43
2023/06/03 10:19:37;;;;;;;0.80;0.50;;;18.90;66.40;;;;;;5042733;28;20025;-43
2023/06/03 10:22:08;;;;;;;0.70;0.70;;;18.90;65.60;;;;;;5042330;28;20037;-42
2023/06/03 10:24:37;;;;;;;1.40;0.60;;;19.00;64.80;;;;;;5042010;28;20040;-43
2023/06/03 10:27:03;;;;;;;0.88;0.60;;;19.00;65.30;;;;;;5043117;28;20481;-44
2023/06/03 10:29:31;;;;;;;1.17;0.65;;;19.00;65.60;;;;;;5041474;28;20428;-43
2023/06/03 10:32:00;;;;;;;1.20;0.90;;;19.00;65.80;;;;;;5043067;28;20446;-43
2023/06/03 10:34:29;;;;;;;0.93;0.68;;;19.00;65.80;;;;;;5042795;28;20110;-44
2023/06/03 10:37:01;;;;;;;1.08;0.82;;;19.00;66.10;;;;;;5042427;28;20028;-44
2023/06/03 10:39:28;;;;;;;1.45;0.70;;;19.00;66.10;;;;;;5044460;28;20770;-43
2023/06/03 10:41:57;;;;;;;0.55;0.40;;;19.10;66.30;;;;;;5047092;28;20020;-43
2023/06/03 10:44:23;;;;;;;0.57;0.50;;;19.20;66.50;;;;;;5045766;28;20086;-43
2023/06/03 10:47:13;;;;;;;0.57;0.50;;;19.20;66.30;;;;;;5047306;28;20060;-43
2023/06/03 10:49:46;;;;;;;0.60;0.60;;;19.20;64.40;;;;;;5045748;28;20021;-42
2023/06/03 10:52:39;;;;;;;0.95;0.40;;;19.20;64.50;;;;;;5046553;28;20098;-44
2023/06/03 10:55:25;;;;;;;0.68;0.60;;;19.30;64.50;;;;;;5046612;28;20420;-42
2023/06/03 10:58:11;;;;;;;0.98;0.50;;;19.30;64.60;;;;;;5046117;28;20033;-43
2023/06/03 11:00:56;;;;;;;0.63;0.43;;;19.30;64.70;;;;;;5046269;28;20025;-43
2023/06/03 11:03:23;;;;;;;0.32;0.32;;;19.40;65.00;;;;;;5046344;28;20032;-44
2023/06/03 11:05:49;;;;;;;0.80;0.60;;;19.40;65.10;;;;;;5046140;28;20056;-43
2023/06/03 11:08:53;;;;;;;1.73;0.55;;;19.50;65.10;;;;;;5046358;28;20114;-44
2023/06/03 11:11:41;;;;;;;1.65;0.60;;;19.50;64.10;;;;;;5045190;28;20047;-43
2023/06/03 11:14:11;;;;;;;1.60;0.60;;;19.60;64.20;;;;;;5027130;28;20033;-43
2023/06/03 11:17:01;;;;;;;0.60;0.50;;;19.70;64.10;;;;;;5042257;28;20114;-42
2023/06/03 11:19:34;;;;;;;0.88;0.63;;;19.80;63.80;;;;;;5024920;28;20520;-43
2023/06/03 11:22:00;;;;;;;0.70;0.60;;;19.80;63.30;;;;;;5043807;28;20479;-43
2023/06/03 11:24:38;;;;;;;0.57;0.57;;;19.80;63.30;;;;;;5045611;28;20029;-43
2023/06/03 11:27:12;;;;;;;2.63;0.60;;;19.80;62.80;;;;;;5044969;28;20036;-43
2023/06/03 11:29:51;;;;;;;1.42;0.50;;;19.80;63.20;;;;;;5045161;28;20087;-43
2023/06/03 11:32:24;;;;;;;0.70;0.50;;;19.80;63.70;;;;;;5045027;28;20064;-44
2023/06/03 11:34:51;;;;;;;0.50;0.50;;;19.90;64.00;;;;;;5046017;28;20031;-43
2023/06/03 11:37:19;;;;;;;0.50;0.50;;;20.00;63.80;;;;;;5045437;28;20036;-43
2023/06/03 11:40:07;;;;;;;1.08;0.80;;;20.00;63.60;;;;;;5042058;28;20055;-43
2023/06/03 11:42:55;;;;;;;0.60;0.60;;;20.00;63.80;;;;;;5040055;28;20034;-44
2023/06/03 11:45:21;;;;;;;2.35;0.68;;;20.10;64.10;;;;;;5040400;28;20033;-42
2023/06/03 11:47:53;;;;;;;0.50;0.50;;;20.10;64.10;;;;;;5044626;28;20075;-43
2023/06/03 11:50:21;;;;;;;0.75;0.70;;;20.10;64.00;;;;;;5045598;28;20033;-43
2023/06/03 11:52:47;;;;;;;0.80;0.50;;;20.20;63.80;;;;;;5044945;28;20140;-44
2023/06/03 11:55:26;;;;;;;1.00;0.50;;;20.20;63.90;;;;;;5042362;28;20024;-44
2023/06/03 11:57:52;;;;;;;0.70;0.60;;;20.20;63.00;;;;;;5040501;28;20025;-43
2023/06/03 12:00:18;;;;;;;1.30;0.60;;;20.20;62.50;;;;;;5043741;28;20592;-42
2023/06/03 12:02:48;;;;;;;0.47;0.47;;;20.20;62.70;;;;;;5040331;28;20555;-44
2023/06/03 12:05:19;;;;;;;1.73;0.80;;;20.20;62.90;;;;;;5043455;28;20040;-43
2023/06/03 12:07:55;;;;;;;1.33;0.80;;;20.20;62.70;;;;;;5044623;28;20025;-43
2023/06/03 12:10:21;;;;;;;1.75;0.60;;;20.30;62.70;;;;;;5045267;28;20112;-43
2023/06/03 12:12:51;;;;;;;1.80;0.65;;;20.30;63.00;;;;;;5045446;28;20155;-43
2023/06/03 12:15:17;;;;;;;0.50;0.50;;;20.30;63.10;;;;;;5044573;28;20072;-43
2023/06/03 12:17:42;;;;;;;1.10;0.70;;;20.40;62.40;;;;;;5042554;28;20521;-44
2023/06/03 12:20:09;;;;;;;1.75;0.70;;;20.40;61.60;;;;;;5038202;28;20758;-44
2023/06/03 12:22:35;;;;;;;1.23;0.65;;;20.40;61.80;;;;;;5042901;28;20033;-44
2023/06/03 12:25:00;;;;;;;0.60;0.60;;;20.40;61.30;;;;;;5034668;28;20580;-44
2023/06/03 12:27:26;;;;;;;1.30;0.80;;;20.40;60.40;;;;;;5033238;28;20029;-43
2023/06/03 12:29:56;;;;;;;1.88;0.70;;;20.40;60.80;;;;;;5042359;28;20056;-45
2023/06/03 12:32:23;;;;;;;0.60;0.50;;;20.40;61.30;;;;;;5043520;28;20104;-44
2023/06/03 12:34:49;;;;;;;0.95;0.68;;;20.40;61.80;;;;;;5044772;28;20021;-44
2023/06/03 12:37:27;;;;;;;0.68;0.68;;;20.50;62.10;;;;;;5043916;28;20079;-44
2023/06/03 12:39:52;;;;;;;0.47;0.45;;;20.50;62.10;;;;;;5043911;28;20050;-44
2023/06/03 12:42:38;;;;;;;1.42;0.65;;;20.60;61.90;;;;;;5043337;28;20435;-43
2023/06/03 12:45:04;;;;;;;1.13;0.82;;;20.60;61.80;;;;;;5042844;28;20017;-44
2023/06/03 12:47:44;;;;;;;1.10;0.77;;;20.70;61.20;;;;;;5044430;28;20032;-43
2023/06/03 12:50:13;;;;;;;1.02;0.70;;;20.70;61.00;;;;;;5043975;28;20023;-43
2023/06/03 12:52:39;;;;;;;0.90;0.60;;;20.80;61.30;;;;;;5043646;28;20072;-44
2023/06/03 12:55:09;;;;;;;0.60;0.50;;;20.80;60.90;;;;;;5044029;28;20028;-42
2023/06/03 12:57:38;;;;;;;1.98;0.60;;;20.80;61.10;;;;;;5043807;28;20155;-44
2023/06/03 13:00:21;;;;;;;0.70;0.60;;;20.90;61.60;;;;;;5044889;28;20040;-43